Time;durP1;ratioP1;P1;durP2;ratioP2;P2;SDS_P1;SDS_P2;PMS_P1;PMS_P2;Temp;Humidity;BMP_temperature;BMP_pressure;BME280_temperature;BME280_humidity;BME280_pressure;Samples;Min_cycle;Max_cycle;Signal;HPM_P1;HPM_P2
2022/03/24 00:02:04;;;;;;;12.35;8.90;;;19.20;63.80;;;;;;7903143;28;20304;-52
2022/03/24 00:05:49;;;;;;;14.35;9.65;;;19.20;63.80;;;;;;7905077;28;20235;-51
2022/03/24 00:09:35;;;;;;;17.27;9.07;;;19.20;63.80;;;;;;7904894;28;20708;-51
2022/03/24 00:13:20;;;;;;;12.90;8.15;;;19.10;64.60;;;;;;7904907;28;20192;-49
2022/03/24 00:17:07;;;;;;;13.18;8.82;;;19.10;63.70;;;;;;7904789;28;20168;-52
2022/03/24 00:20:52;;;;;;;12.50;8.55;;;19.20;63.80;;;;;;7904497;28;20287;-49
2022/03/24 00:24:38;;;;;;;12.02;8.45;;;19.10;63.80;;;;;;7904393;28;20254;-48
2022/03/24 00:28:23;;;;;;;10.85;8.18;;;19.10;63.80;;;;;;7904477;28;20546;-51
2022/03/24 00:32:09;;;;;;;11.25;8.40;;;19.10;63.70;;;;;;7904091;28;20177;-50
2022/03/24 00:35:56;;;;;;;12.85;8.55;;;19.10;63.70;;;;;;7904253;28;20666;-51
2022/03/24 00:39:42;;;;;;;10.80;8.30;;;19.10;63.80;;;;;;7903940;28;20208;-49
2022/03/24 00:43:27;;;;;;;8.93;7.65;;;19.10;63.70;;;;;;7904054;28;20196;-48
2022/03/24 00:47:14;;;;;;;10.05;8.20;;;19.10;63.70;;;;;;7903876;28;20302;-49
2022/03/24 00:50:59;;;;;;;12.75;8.40;;;19.00;63.70;;;;;;7903662;28;20257;-51
2022/03/24 00:54:46;;;;;;;10.88;8.30;;;19.00;63.70;;;;;;7903610;28;20228;-49
2022/03/24 00:58:31;;;;;;;14.00;7.95;;;19.00;63.80;;;;;;7903493;28;20184;-51
2022/03/24 01:02:17;;;;;;;14.70;8.43;;;19.00;63.70;;;;;;7903225;28;20581;-50
2022/03/24 01:06:03;;;;;;;11.82;7.78;;;19.00;63.70;;;;;;7903284;28;20204;-49
2022/03/24 01:09:48;;;;;;;12.70;8.18;;;19.00;63.70;;;;;;7903039;28;20249;-50
2022/03/24 01:13:35;;;;;;;10.98;8.50;;;19.00;63.70;;;;;;7902917;28;20690;-49
2022/03/24 01:17:23;;;;;;;13.25;8.52;;;19.00;63.80;;;;;;7903118;28;20176;-51
2022/03/24 01:21:10;;;;;;;11.32;8.77;;;19.00;63.80;;;;;;7902605;28;20667;-53
2022/03/24 01:24:56;;;;;;;10.82;7.97;;;19.00;63.70;;;;;;7902884;28;20196;-49
2022/03/24 01:28:42;;;;;;;9.82;7.97;;;19.00;63.80;;;;;;7902971;28;20221;-49
2022/03/24 01:32:28;;;;;;;16.13;8.43;;;18.90;63.70;;;;;;7902454;28;20669;-49
2022/03/24 01:36:16;;;;;;;12.07;8.10;;;18.90;63.70;;;;;;7902626;28;20172;-49
2022/03/24 01:40:02;;;;;;;10.15;8.40;;;19.00;63.80;;;;;;7902207;28;20231;-51
2022/03/24 01:43:49;;;;;;;12.05;8.50;;;18.90;63.70;;;;;;7902276;28;20296;-49
2022/03/24 01:47:35;;;;;;;11.38;8.73;;;18.90;63.70;;;;;;7902553;28;20169;-49
2022/03/24 01:51:20;;;;;;;11.85;8.50;;;18.90;63.70;;;;;;7901645;28;20207;-48
2022/03/24 01:55:07;;;;;;;10.50;8.07;;;18.80;63.70;;;;;;7901763;28;20189;-49
2022/03/24 01:58:54;;;;;;;15.75;8.98;;;18.80;63.70;;;;;;7901688;28;20560;-49
2022/03/24 02:02:42;;;;;;;12.10;8.73;;;18.80;63.70;;;;;;7901280;28;20220;-49
2022/03/24 02:06:28;;;;;;;12.27;9.20;;;18.80;63.70;;;;;;7901530;28;20593;-49
2022/03/24 02:10:13;;;;;;;12.48;9.30;;;18.80;63.70;;;;;;7901282;28;20251;-48
2022/03/24 02:13:59;;;;;;;12.43;8.82;;;18.80;63.70;;;;;;7901367;28;20192;-48
2022/03/24 02:17:44;;;;;;;12.30;9.23;;;18.80;63.80;;;;;;7901257;28;20241;-49
2022/03/24 02:21:30;;;;;;;13.57;9.35;;;18.80;63.70;;;;;;7900923;28;20204;-51
2022/03/24 02:25:15;;;;;;;13.15;9.10;;;18.80;63.70;;;;;;7900508;28;20552;-51
2022/03/24 02:29:06;;;;;;;13.75;9.57;;;18.80;63.80;;;;;;7900949;28;20200;-49
2022/03/24 02:32:52;;;;;;;14.52;9.85;;;18.80;63.80;;;;;;7900843;28;20226;-51
2022/03/24 02:36:38;;;;;;;13.02;9.75;;;18.70;63.80;;;;;;7900903;28;20545;-51
2022/03/24 02:40:24;;;;;;;14.23;9.75;;;18.80;63.80;;;;;;7900748;28;20285;-49
2022/03/24 02:44:10;;;;;;;15.70;10.40;;;18.70;63.80;;;;;;7900790;28;20197;-49
2022/03/24 02:47:55;;;;;;;13.10;10.05;;;18.70;63.80;;;;;;7900736;28;20242;-49
2022/03/24 02:51:42;;;;;;;15.65;10.68;;;18.70;63.80;;;;;;7900608;28;20599;-51
2022/03/24 02:55:28;;;;;;;15.77;10.50;;;18.70;63.80;;;;;;7900769;28;20206;-50
2022/03/24 02:59:14;;;;;;;16.42;11.18;;;18.70;63.80;;;;;;7900648;28;20184;-53
2022/03/24 03:03:00;;;;;;;13.43;10.80;;;18.70;63.80;;;;;;7900480;28;20299;-50
2022/03/24 03:06:45;;;;;;;14.43;11.27;;;18.70;63.90;;;;;;7900525;28;20165;-51
2022/03/24 03:10:31;;;;;;;16.67;11.75;;;18.60;63.80;;;;;;7900296;28;20172;-49
2022/03/24 03:14:17;;;;;;;15.52;11.20;;;18.50;63.70;;;;;;7900307;28;20670;-50
2022/03/24 03:18:03;;;;;;;17.13;11.57;;;18.60;63.80;;;;;;7900590;28;20176;-51
2022/03/24 03:21:51;;;;;;;17.33;11.35;;;18.60;63.80;;;;;;7899820;28;20205;-51
2022/03/24 03:25:37;;;;;;;18.33;12.05;;;18.60;63.80;;;;;;7899980;28;20537;-52
2022/03/24 03:29:23;;;;;;;18.25;12.30;;;18.60;63.70;;;;;;7899813;28;20222;-52
2022/03/24 03:33:09;;;;;;;15.98;11.77;;;18.60;63.80;;;;;;7900273;28;20235;-51
2022/03/24 03:36:55;;;;;;;17.23;12.32;;;18.60;63.80;;;;;;7904080;28;20204;-51
2022/03/24 03:40:41;;;;;;;17.70;12.27;;;18.60;63.80;;;;;;7906253;28;20223;-48
2022/03/24 03:44:26;;;;;;;18.33;12.60;;;18.60;63.70;;;;;;7905729;28;20234;-51
2022/03/24 03:48:13;;;;;;;15.98;11.55;;;18.50;63.70;;;;;;7905675;28;20569;-48
2022/03/24 03:51:58;;;;;;;16.73;12.50;;;18.50;63.70;;;;;;7905228;28;20657;-50
2022/03/24 03:55:44;;;;;;;16.83;12.35;;;18.60;63.80;;;;;;7905394;28;20625;-48
2022/03/24 03:59:30;;;;;;;17.52;12.45;;;18.50;63.70;;;;;;7905094;28;20191;-48
2022/03/24 04:03:15;;;;;;;15.40;12.45;;;18.50;63.70;;;;;;7905157;28;20220;-48
2022/03/24 04:07:01;;;;;;;16.10;12.30;;;18.50;63.70;;;;;;7905288;28;20227;-50
2022/03/24 04:10:48;;;;;;;17.65;12.60;;;18.50;63.70;;;;;;7904734;28;20232;-50
2022/03/24 04:14:34;;;;;;;17.02;12.50;;;18.50;63.70;;;;;;7905029;28;20201;-48
2022/03/24 04:18:22;;;;;;;19.58;13.30;;;18.50;63.70;;;;;;7904920;28;20173;-50
2022/03/24 04:22:07;;;;;;;18.48;13.02;;;18.50;63.80;;;;;;7904367;28;20197;-50
2022/03/24 04:25:53;;;;;;;18.00;13.05;;;18.50;63.70;;;;;;7904507;28;20250;-50
2022/03/24 04:29:38;;;;;;;16.52;12.45;;;18.40;63.60;;;;;;7904301;28;20196;-48
2022/03/24 04:33:24;;;;;;;17.42;12.85;;;18.40;63.70;;;;;;7904277;28;20201;-52
2022/03/24 04:37:09;;;;;;;21.70;13.50;;;18.40;63.70;;;;;;7904596;28;20298;-52
2022/03/24 04:40:56;;;;;;;19.58;13.60;;;18.40;63.50;;;;;;7903842;28;20204;-48
2022/03/24 04:44:41;;;;;;;18.98;13.02;;;18.40;63.60;;;;;;7904096;28;20204;-51
2022/03/24 04:48:27;;;;;;;18.25;13.63;;;18.40;63.70;;;;;;7904486;28;20177;-48
2022/03/24 04:52:12;;;;;;;16.80;13.43;;;18.50;63.70;;;;;;7922148;28;20203;-50
2022/03/24 04:55:58;;;;;;;19.50;13.50;;;18.40;63.70;;;;;;7925053;28;20257;-51
2022/03/24 04:59:43;;;;;;;20.52;13.70;;;18.40;63.50;;;;;;7903367;28;20698;-48
2022/03/24 05:03:29;;;;;;;21.83;13.27;;;18.40;63.60;;;;;;7914004;28;20219;-48
2022/03/24 05:07:14;;;;;;;20.08;13.52;;;18.50;63.70;;;;;;7902562;28;20234;-51
2022/03/24 05:11:00;;;;;;;20.90;14.65;;;18.50;63.60;;;;;;7902115;28;20233;-48
2022/03/24 05:14:46;;;;;;;19.92;14.25;;;18.40;63.30;;;;;;7927055;28;20290;-51
2022/03/24 05:18:32;;;;;;;28.23;12.60;;;18.50;63.40;;;;;;7927802;27;20184;-50
2022/03/24 05:22:17;;;;;;;27.85;13.20;;;18.50;64.20;;;;;;7932744;28;20199;-53
2022/03/24 05:26:03;;;;;;;23.70;12.20;;;18.50;64.30;;;;;;7933520;28;20180;-52
2022/03/24 05:29:48;;;;;;;18.40;11.95;;;18.50;64.50;;;;;;7932824;28;20513;-49
2022/03/24 05:33:34;;;;;;;27.33;11.45;;;18.50;64.80;;;;;;7917079;28;20196;-51
2022/03/24 05:37:19;;;;;;;29.42;13.18;;;18.50;65.80;;;;;;7933191;28;20180;-51
2022/03/24 05:41:05;;;;;;;24.65;12.55;;;18.50;65.20;;;;;;7932899;28;20203;-48
2022/03/24 05:44:50;;;;;;;19.73;10.00;;;18.50;65.30;;;;;;7932762;28;20257;-50
2022/03/24 05:48:36;;;;;;;20.23;12.75;;;18.60;65.30;;;;;;7918685;28;20281;-48
2022/03/24 05:52:21;;;;;;;23.10;13.07;;;18.50;65.10;;;;;;7900854;28;20266;-49
2022/03/24 05:56:08;;;;;;;18.33;12.68;;;18.60;64.70;;;;;;7900196;28;20179;-51
2022/03/24 05:59:53;;;;;;;18.50;12.55;;;18.60;64.50;;;;;;7899008;28;20876;-50
2022/03/24 06:03:40;;;;;;;22.88;10.77;;;18.50;64.50;;;;;;7914468;28;20590;-48
2022/03/24 06:07:29;;;;;;;21.83;12.05;;;18.50;65.10;;;;;;7931838;28;20191;-52
2022/03/24 06:11:14;;;;;;;26.55;11.40;;;18.50;64.60;;;;;;7931688;28;20180;-48
2022/03/24 06:15:00;;;;;;;26.45;11.60;;;18.50;64.80;;;;;;7929460;28;20214;-51
2022/03/24 06:18:45;;;;;;;30.85;12.15;;;18.50;65.40;;;;;;7904991;28;20234;-48
2022/03/24 06:22:56;;;;;;;17.80;10.15;;;18.50;65.80;;;;;;7898367;28;20218;-48
2022/03/24 06:26:41;;;;;;;29.95;11.75;;;18.40;65.70;;;;;;7900822;28;20258;-48
2022/03/24 06:30:28;;;;;;;22.02;11.55;;;18.50;65.40;;;;;;7901106;28;20180;-48
2022/03/24 06:34:15;;;;;;;32.63;11.88;;;18.40;65.30;;;;;;7900834;28;20578;-48
2022/03/24 06:38:01;;;;;;;21.45;11.90;;;18.40;65.40;;;;;;7900260;28;20692;-48
2022/03/24 06:41:48;;;;;;;35.20;11.40;;;18.40;65.40;;;;;;7900851;28;20234;-48
2022/03/24 06:45:34;;;;;;;24.73;10.15;;;18.40;65.40;;;;;;7900964;28;20205;-49
2022/03/24 06:49:20;;;;;;;20.23;10.88;;;18.40;66.00;;;;;;7900534;28;20181;-49
2022/03/24 06:53:05;;;;;;;19.65;11.73;;;18.40;65.50;;;;;;7900713;28;20200;-50
2022/03/24 06:56:51;;;;;;;19.88;11.85;;;18.40;65.50;;;;;;7900447;28;20183;-48
2022/03/24 07:00:38;;;;;;;18.52;11.70;;;18.40;65.50;;;;;;7900063;28;20320;-49
2022/03/24 07:04:23;;;;;;;21.70;11.15;;;18.40;65.50;;;;;;7900339;28;20196;-50
2022/03/24 07:08:11;;;;;;;16.25;11.52;;;18.40;65.50;;;;;;7900265;28;20184;-48
2022/03/24 07:11:57;;;;;;;21.20;11.32;;;18.40;65.50;;;;;;7905908;28;20553;-52
2022/03/24 07:15:42;;;;;;;24.25;11.98;;;18.30;65.50;;;;;;7906833;28;20204;-48
2022/03/24 07:19:28;;;;;;;21.67;12.18;;;18.30;65.60;;;;;;7904379;28;20275;-52
2022/03/24 07:23:14;;;;;;;20.05;11.65;;;18.30;65.70;;;;;;7905687;28;20200;-50
2022/03/24 07:26:59;;;;;;;17.27;11.10;;;18.30;65.90;;;;;;7906400;28;20209;-51
2022/03/24 07:30:50;;;;;;;15.13;9.85;;;18.40;66.50;;;;;;7906035;28;20181;-48
2022/03/24 07:34:36;;;;;;;12.63;9.50;;;18.30;66.70;;;;;;7917639;28;20279;-52
2022/03/24 07:38:22;;;;;;;14.50;9.38;;;18.30;67.00;;;;;;7936772;28;20187;-51
2022/03/24 07:42:07;;;;;;;17.85;10.25;;;18.30;68.20;;;;;;7936648;28;20264;-51
2022/03/24 07:45:53;;;;;;;23.33;9.98;;;18.30;66.90;;;;;;7929652;28;20201;-48
2022/03/24 07:49:39;;;;;;;22.75;9.80;;;18.30;66.90;;;;;;7903934;28;20180;-51
2022/03/24 07:53:27;;;;;;;14.85;8.63;;;18.30;67.80;;;;;;7905455;28;20227;-48
2022/03/24 07:57:13;;;;;;;18.90;11.02;;;18.30;67.60;;;;;;7905657;28;20263;-51
2022/03/24 08:00:59;;;;;;;17.38;10.40;;;18.30;67.50;;;;;;7904981;28;20262;-48
2022/03/24 08:04:45;;;;;;;17.25;9.90;;;18.30;67.40;;;;;;7905215;28;20220;-52
2022/03/24 08:08:31;;;;;;;16.60;10.45;;;18.30;67.50;;;;;;7905174;28;20666;-50
2022/03/24 08:12:17;;;;;;;18.25;9.73;;;18.30;67.40;;;;;;7904648;28;20599;-51
2022/03/24 08:16:04;;;;;;;19.13;9.13;;;18.40;68.00;;;;;;7904963;28;20176;-48
2022/03/24 08:19:50;;;;;;;15.38;9.20;;;18.40;68.20;;;;;;7904422;28;20181;-51
2022/03/24 08:23:35;;;;;;;17.90;9.63;;;18.40;67.90;;;;;;7903619;28;20200;-49
2022/03/24 08:27:22;;;;;;;19.58;10.65;;;18.40;67.80;;;;;;7904477;28;20179;-48
2022/03/24 08:31:08;;;;;;;18.92;10.05;;;18.40;67.40;;;;;;7904354;28;20177;-48
2022/03/24 08:34:53;;;;;;;13.40;9.45;;;18.40;67.40;;;;;;7904411;28;20249;-49
2022/03/24 08:38:38;;;;;;;14.38;9.25;;;18.40;67.70;;;;;;7904437;28;20231;-48
2022/03/24 08:42:24;;;;;;;15.70;9.13;;;18.40;67.60;;;;;;7903769;28;20545;-49
2022/03/24 08:46:10;;;;;;;18.83;9.55;;;18.40;67.40;;;;;;7904214;28;20173;-50
2022/03/24 08:49:55;;;;;;;17.75;10.10;;;18.40;67.40;;;;;;7903255;28;20181;-48
2022/03/24 08:53:41;;;;;;;19.45;10.05;;;18.40;66.60;;;;;;7903794;28;20185;-48
2022/03/24 08:57:26;;;;;;;13.23;9.25;;;18.40;67.10;;;;;;7903794;28;20702;-51
2022/03/24 09:01:12;;;;;;;13.25;9.68;;;18.40;66.90;;;;;;7903599;28;20204;-51
2022/03/24 09:04:57;;;;;;;13.07;8.93;;;18.40;66.90;;;;;;7922085;28;20615;-49
2022/03/24 09:08:43;;;;;;;30.13;9.50;;;18.40;68.00;;;;;;7907623;28;20192;-52
2022/03/24 09:12:29;;;;;;;16.58;9.32;;;18.50;68.40;;;;;;7902340;28;20556;-49
2022/03/24 09:16:15;;;;;;;15.13;8.52;;;18.50;67.60;;;;;;7902108;28;20249;-47
2022/03/24 09:20:09;;;;;;;26.67;8.13;;;18.60;67.60;;;;;;7901756;28;20695;-55
2022/03/24 09:23:55;;;;;;;14.38;9.23;;;18.50;67.80;;;;;;7900449;28;20579;-47
2022/03/24 09:27:41;;;;;;;19.85;8.88;;;18.50;68.10;;;;;;7901583;28;20247;-48
2022/03/24 09:31:27;;;;;;;20.08;9.15;;;18.70;68.10;;;;;;7901701;28;20177;-48
2022/03/24 09:35:13;;;;;;;15.82;8.48;;;18.50;67.90;;;;;;7921882;28;20208;-48
2022/03/24 09:38:59;;;;;;;18.52;8.38;;;18.60;68.70;;;;;;7933327;28;20260;-48
2022/03/24 09:42:46;;;;;;;14.25;9.13;;;18.60;68.20;;;;;;7932449;28;20212;-49
2022/03/24 09:46:31;;;;;;;19.90;8.48;;;18.60;68.10;;;;;;7922134;28;20706;-61
2022/03/24 09:50:18;;;;;;;28.95;8.88;;;18.60;68.50;;;;;;7923076;28;20199;-50
2022/03/24 09:54:05;;;;;;;18.70;8.43;;;18.60;68.70;;;;;;7899662;28;20196;-50
2022/03/24 09:57:50;;;;;;;12.75;8.20;;;18.60;68.70;;;;;;7900977;28;20301;-49
2022/03/24 10:01:39;;;;;;;12.88;7.40;;;18.60;68.40;;;;;;7900501;28;20329;-50
2022/03/24 10:05:24;;;;;;;26.48;9.57;;;18.60;68.40;;;;;;7907607;28;20204;-52
2022/03/24 10:09:10;;;;;;;26.63;8.55;;;18.70;68.70;;;;;;7900630;28;20176;-52
2022/03/24 10:12:55;;;;;;;26.45;8.60;;;18.60;68.50;;;;;;7900561;28;20197;-53
2022/03/24 10:16:43;;;;;;;16.55;7.43;;;18.70;68.70;;;;;;7900624;28;20286;-52
2022/03/24 10:20:30;;;;;;;20.45;8.35;;;18.70;68.10;;;;;;7922287;28;20602;-53
2022/03/24 10:24:19;;;;;;;20.83;7.97;;;18.70;68.00;;;;;;7931636;28;20203;-52
2022/03/24 10:28:07;;;;;;;21.75;8.15;;;18.70;67.80;;;;;;7925001;28;20189;-51
2022/03/24 10:31:55;;;;;;;19.70;7.85;;;18.60;67.80;;;;;;7899789;28;20208;-51
2022/03/24 10:35:41;;;;;;;28.48;9.38;;;18.60;67.80;;;;;;7926452;28;20238;-52
2022/03/24 10:39:26;;;;;;;17.67;7.55;;;18.60;67.70;;;;;;7931298;28;20184;-51
2022/03/24 10:43:24;;;;;;;31.67;8.15;;;18.60;68.10;;;;;;7931006;28;20206;-53
2022/03/24 10:47:11;;;;;;;18.90;7.70;;;18.60;68.40;;;;;;7931415;28;20277;-52
2022/03/24 10:50:56;;;;;;;16.73;7.20;;;18.60;68.70;;;;;;7901950;28;20266;-54
2022/03/24 10:54:49;;;;;;;17.33;7.78;;;18.70;68.70;;;;;;7899321;28;20301;-52
2022/03/24 10:58:47;;;;;;;14.05;7.32;;;18.70;68.90;;;;;;7899785;28;20191;-52
2022/03/24 11:02:34;;;;;;;17.58;7.40;;;18.60;68.90;;;;;;7899921;28;20199;-50
2022/03/24 11:06:24;;;;;;;12.68;8.07;;;18.70;68.80;;;;;;7930880;28;20188;-55
2022/03/24 11:10:11;;;;;;;15.57;7.13;;;18.70;69.00;;;;;;7930657;28;20168;-51
2022/03/24 11:13:59;;;;;;;14.52;6.90;;;18.70;68.40;;;;;;7930887;28;20214;-51
2022/03/24 11:17:46;;;;;;;15.23;7.00;;;18.60;68.20;;;;;;7928333;28;20270;-55
2022/03/24 11:21:33;;;;;;;19.20;7.28;;;18.60;68.10;;;;;;7898724;28;20648;-54
2022/03/24 11:25:20;;;;;;;14.63;7.25;;;18.60;67.50;;;;;;7898841;28;20279;-52
2022/03/24 11:29:06;;;;;;;19.55;7.63;;;18.60;67.80;;;;;;7898985;28;20241;-51
2022/03/24 11:32:54;;;;;;;14.63;7.22;;;18.60;67.80;;;;;;7902688;28;20231;-51
2022/03/24 11:36:41;;;;;;;14.38;7.47;;;18.50;67.70;;;;;;7902877;28;20276;-51
2022/03/24 11:40:28;;;;;;;14.13;6.80;;;18.50;67.60;;;;;;7898684;28;20279;-53
2022/03/24 11:44:22;;;;;;;13.65;7.50;;;18.50;67.50;;;;;;7898663;28;20200;-52
2022/03/24 11:48:12;;;;;;;11.40;7.55;;;18.50;67.40;;;;;;7905777;28;20176;-55
2022/03/24 11:51:57;;;;;;;16.02;7.80;;;18.50;67.30;;;;;;7898718;28;20193;-54
2022/03/24 11:56:01;;;;;;;12.10;7.28;;;18.50;66.90;;;;;;7909341;28;20204;-51
2022/03/24 11:59:49;;;;;;;13.90;6.70;;;18.50;67.00;;;;;;7904199;28;20242;-51
2022/03/24 12:03:42;;;;;;;16.00;7.03;;;18.50;67.10;;;;;;7915078;28;20246;-51
2022/03/24 12:07:29;;;;;;;17.60;7.10;;;18.50;67.10;;;;;;7912640;28;20270;-51
2022/03/24 12:11:32;;;;;;;16.17;7.35;;;18.50;67.40;;;;;;7908794;28;20231;-52
2022/03/24 12:15:24;;;;;;;16.13;6.97;;;18.50;67.90;;;;;;7924217;28;20207;-50
2022/03/24 12:19:37;;;;;;;18.63;6.30;;;18.50;67.50;;;;;;7917805;28;20212;-51
2022/03/24 12:23:23;;;;;;;17.38;6.90;;;18.50;67.60;;;;;;7903160;28;20694;-51
2022/03/24 12:27:15;;;;;;;25.80;6.93;;;18.50;67.70;;;;;;7903854;28;20759;-50
2022/03/24 12:31:05;;;;;;;15.13;7.72;;;18.50;69.40;;;;;;7903441;28;20536;-50
2022/03/24 12:34:50;;;;;;;22.77;7.28;;;18.50;69.40;;;;;;7925007;28;20676;-52
2022/03/24 12:38:42;;;;;;;12.38;7.72;;;18.60;70.10;;;;;;7918695;28;20557;-50
2022/03/24 12:42:39;;;;;;;17.40;7.05;;;18.60;70.50;;;;;;7902943;28;20214;-50
2022/03/24 12:46:34;;;;;;;23.25;7.40;;;18.60;70.80;;;;;;7903032;28;20704;-52
2022/03/24 12:50:20;;;;;;;15.70;7.03;;;18.60;70.80;;;;;;7928711;28;20199;-51
2022/03/24 12:54:16;;;;;;;14.90;7.03;;;18.70;70.80;;;;;;7934428;28;20206;-50
2022/03/24 12:58:01;;;;;;;12.88;7.15;;;18.70;70.90;;;;;;7934557;28;20176;-53
2022/03/24 13:01:49;;;;;;;14.38;6.75;;;18.70;70.90;;;;;;7933988;28;20751;-50
2022/03/24 13:05:36;;;;;;;12.98;6.75;;;18.70;70.70;;;;;;7905495;28;20713;-51
2022/03/24 13:09:22;;;;;;;10.88;6.50;;;18.70;70.70;;;;;;7902106;28;20552;-54
2022/03/24 13:13:09;;;;;;;14.07;7.47;;;18.70;70.70;;;;;;7902242;28;20220;-52
2022/03/24 13:17:01;;;;;;;18.05;7.00;;;18.70;70.70;;;;;;7902479;28;20242;-49
2022/03/24 13:20:51;;;;;;;12.35;6.75;;;18.70;70.70;;;;;;7932137;28;20215;-51
2022/03/24 13:24:38;;;;;;;12.02;7.22;;;18.70;70.70;;;;;;7933691;28;20756;-51
2022/03/24 13:28:25;;;;;;;13.48;6.47;;;18.70;70.70;;;;;;7933374;28;20165;-50
2022/03/24 13:32:16;;;;;;;14.82;6.70;;;18.80;70.20;;;;;;7933260;28;20180;-51
2022/03/24 13:36:02;;;;;;;12.15;6.40;;;18.80;70.30;;;;;;7901604;28;20183;-50
2022/03/24 13:39:49;;;;;;;13.00;5.90;;;18.80;70.60;;;;;;7929344;28;20212;-51
2022/03/24 13:43:35;;;;;;;17.52;6.63;;;18.80;70.90;;;;;;7932732;28;20758;-54
2022/03/24 13:47:25;;;;;;;15.07;7.07;;;18.80;70.30;;;;;;7928234;28;20683;-54
2022/03/24 13:51:12;;;;;;;20.10;6.65;;;18.70;69.70;;;;;;7917735;28;20208;-52
2022/03/24 13:55:06;;;;;;;20.98;6.78;;;18.80;70.10;;;;;;7900901;28;20196;-52
2022/03/24 13:59:00;;;;;;;22.33;6.50;;;18.80;70.40;;;;;;7901060;28;20180;-52
2022/03/24 14:02:45;;;;;;;23.17;6.82;;;18.80;70.60;;;;;;7906736;28;20257;-52
2022/03/24 14:06:31;;;;;;;21.92;6.47;;;18.80;70.60;;;;;;7932159;28;20250;-51
2022/03/24 14:10:16;;;;;;;17.05;6.43;;;18.80;70.60;;;;;;7932140;28;20176;-51
2022/03/24 14:14:13;;;;;;;14.25;7.28;;;18.80;70.50;;;;;;7931955;28;20560;-51
2022/03/24 14:18:15;;;;;;;17.05;6.20;;;18.80;70.60;;;;;;7924148;28;20627;-50
2022/03/24 14:22:03;;;;;;;14.32;5.88;;;18.80;70.80;;;;;;7928606;28;20215;-52
2022/03/24 14:25:48;;;;;;;17.10;7.75;;;18.80;70.60;;;;;;7931483;28;20646;-52
2022/03/24 14:29:37;;;;;;;11.38;6.07;;;18.80;70.80;;;;;;7931374;28;20547;-51
2022/03/24 14:33:23;;;;;;;12.18;6.32;;;18.80;70.60;;;;;;7919706;28;20548;-50
2022/03/24 14:37:12;;;;;;;17.00;6.60;;;18.80;70.80;;;;;;7900196;28;20617;-51
2022/03/24 14:40:58;;;;;;;15.30;6.70;;;18.80;70.60;;;;;;7899788;28;20257;-50
2022/03/24 14:44:45;;;;;;;15.55;6.78;;;18.80;70.60;;;;;;7899617;28;20196;-52
2022/03/24 14:48:30;;;;;;;10.85;6.18;;;18.80;71.70;;;;;;7913007;28;20179;-52
2022/03/24 14:52:16;;;;;;;15.32;6.45;;;18.80;70.70;;;;;;7931385;28;20187;-52
2022/03/24 14:56:01;;;;;;;12.57;6.20;;;18.80;71.70;;;;;;7930936;28;20188;-50
2022/03/24 14:59:46;;;;;;;14.48;6.15;;;18.80;70.80;;;;;;7917669;28;20192;-51
2022/03/24 15:03:32;;;;;;;11.02;5.82;;;18.80;71.00;;;;;;7902241;28;20204;-52
2022/03/24 15:07:19;;;;;;;13.10;6.20;;;18.80;70.80;;;;;;7899164;28;20217;-51
2022/03/24 15:11:05;;;;;;;18.42;6.25;;;18.80;70.80;;;;;;7898387;28;20260;-52
2022/03/24 15:18:54;;;;;;;18.45;6.55;;;18.70;70.00;;;;;;7931158;28;20176;-53
2022/03/24 15:22:40;;;;;;;18.08;6.38;;;18.70;69.80;;;;;;7930880;28;20295;-53
2022/03/24 15:26:26;;;;;;;17.77;6.55;;;18.60;69.80;;;;;;7931634;28;20220;-51
2022/03/24 15:30:12;;;;;;;17.73;6.55;;;18.70;70.30;;;;;;7932644;28;20167;-54
2022/03/24 15:33:58;;;;;;;24.08;6.45;;;18.70;70.10;;;;;;7937898;28;20188;-52
2022/03/24 15:37:44;;;;;;;24.58;6.35;;;18.60;69.90;;;;;;7937766;28;20168;-51
2022/03/24 15:41:32;;;;;;;12.23;6.30;;;18.60;69.90;;;;;;7937257;28;20661;-53
2022/03/24 15:45:18;;;;;;;13.15;6.10;;;18.50;69.80;;;;;;7931447;28;20288;-52
2022/03/24 15:49:04;;;;;;;14.95;5.78;;;18.50;69.70;;;;;;7928572;28;20184;-52
2022/03/24 15:52:50;;;;;;;15.48;5.93;;;18.50;69.70;;;;;;7937397;28;20237;-54
2022/03/24 15:56:37;;;;;;;12.20;5.30;;;18.50;69.60;;;;;;7929901;28;20193;-53
2022/03/24 16:00:23;;;;;;;19.77;6.40;;;18.40;69.40;;;;;;7905540;28;20205;-53
2022/03/24 16:04:09;;;;;;;13.60;5.55;;;18.40;69.30;;;;;;7907124;28;20192;-52
2022/03/24 16:07:54;;;;;;;9.38;5.88;;;18.40;70.00;;;;;;7935550;28;20171;-50
2022/03/24 16:11:40;;;;;;;9.35;6.10;;;18.40;69.10;;;;;;7937617;28;20656;-52
2022/03/24 16:15:26;;;;;;;15.25;6.22;;;18.30;69.00;;;;;;7937608;28;20221;-52
2022/03/24 16:19:11;;;;;;;12.45;6.40;;;18.30;68.80;;;;;;7937212;28;20175;-52
2022/03/24 16:23:00;;;;;;;9.57;5.75;;;18.30;68.80;;;;;;7937019;28;20299;-49
2022/03/24 16:26:46;;;;;;;11.55;5.97;;;18.30;68.80;;;;;;7936983;28;20176;-51
2022/03/24 16:30:32;;;;;;;10.55;6.68;;;18.30;68.70;;;;;;7936281;28;20272;-51
2022/03/24 16:34:18;;;;;;;10.98;6.05;;;18.30;68.70;;;;;;7936652;28;20207;-52
2022/03/24 16:38:03;;;;;;;9.15;5.45;;;18.30;68.70;;;;;;7936525;28;20176;-50
2022/03/24 16:41:49;;;;;;;14.40;6.38;;;18.30;68.60;;;;;;7935291;28;20234;-52
2022/03/24 16:45:35;;;;;;;10.90;6.25;;;18.20;68.60;;;;;;7936036;28;20211;-54
2022/03/24 16:49:20;;;;;;;10.07;6.65;;;18.30;68.50;;;;;;7935696;28;20626;-50
2022/03/24 16:53:06;;;;;;;9.40;6.20;;;18.30;68.30;;;;;;7911411;28;20236;-50
2022/03/24 16:56:52;;;;;;;11.10;6.55;;;18.30;68.20;;;;;;7904033;28;20541;-50
2022/03/24 17:00:38;;;;;;;13.30;6.47;;;18.40;68.20;;;;;;7903780;28;20197;-52
2022/03/24 17:04:25;;;;;;;10.10;6.32;;;18.30;68.00;;;;;;7903842;28;20559;-50
2022/03/24 17:08:10;;;;;;;18.95;6.95;;;18.30;68.00;;;;;;7903826;28;20597;-51
2022/03/24 17:11:56;;;;;;;12.00;7.22;;;18.30;67.90;;;;;;7903594;28;20224;-52
2022/03/24 17:15:42;;;;;;;11.88;6.32;;;18.20;67.80;;;;;;7903639;28;20199;-51
2022/03/24 17:19:27;;;;;;;8.90;6.32;;;18.30;67.90;;;;;;7903190;28;20784;-52
2022/03/24 17:23:13;;;;;;;17.60;6.60;;;18.30;67.80;;;;;;7903018;28;20574;-50
2022/03/24 17:26:58;;;;;;;15.25;7.25;;;18.20;67.80;;;;;;7903109;28;20218;-52
2022/03/24 17:30:44;;;;;;;11.38;7.38;;;18.20;67.60;;;;;;7902930;28;20180;-50
2022/03/24 17:34:29;;;;;;;13.18;7.60;;;18.20;67.50;;;;;;7902723;28;20204;-52
2022/03/24 17:38:14;;;;;;;12.52;7.13;;;18.20;67.40;;;;;;7902909;28;20715;-50
2022/03/24 17:42:00;;;;;;;12.45;8.68;;;18.30;67.30;;;;;;7902554;28;20236;-52
2022/03/24 17:45:46;;;;;;;13.43;7.90;;;18.20;67.20;;;;;;7902964;28;20267;-51
2022/03/24 17:49:31;;;;;;;12.75;8.23;;;18.20;67.00;;;;;;7902881;28;20654;-52
2022/03/24 17:53:17;;;;;;;10.90;7.93;;;18.30;66.80;;;;;;7902093;28;20198;-52
2022/03/24 17:57:03;;;;;;;14.75;8.23;;;18.30;66.80;;;;;;7902843;28;20181;-53
2022/03/24 18:00:48;;;;;;;15.45;8.38;;;18.30;66.80;;;;;;7902196;28;20192;-52
2022/03/24 18:04:34;;;;;;;17.02;8.02;;;18.40;66.60;;;;;;7901020;28;20192;-53
2022/03/24 18:08:19;;;;;;;11.82;8.15;;;18.40;66.50;;;;;;7902295;28;20223;-53
2022/03/24 18:12:05;;;;;;;17.02;7.80;;;18.50;66.50;;;;;;7912478;28;20262;-50
2022/03/24 18:15:51;;;;;;;14.80;8.35;;;18.50;66.10;;;;;;7902407;28;20612;-51
2022/03/24 18:19:37;;;;;;;18.35;8.23;;;18.60;66.00;;;;;;7901350;28;20186;-50
2022/03/24 18:23:23;;;;;;;27.70;7.70;;;18.70;66.30;;;;;;7912803;28;20298;-52
2022/03/24 18:27:09;;;;;;;26.08;7.90;;;18.70;66.60;;;;;;7928401;28;20184;-49
2022/03/24 18:30:55;;;;;;;26.25;8.40;;;18.80;66.60;;;;;;7932401;28;20219;-53
2022/03/24 18:34:41;;;;;;;21.48;8.52;;;18.90;66.20;;;;;;7932812;28;20287;-50
2022/03/24 18:38:27;;;;;;;19.52;8.90;;;18.90;65.80;;;;;;7932841;28;20199;-52
2022/03/24 18:42:12;;;;;;;22.67;7.78;;;18.90;65.50;;;;;;7932372;27;20207;-49
2022/03/24 18:46:00;;;;;;;22.73;8.77;;;19.00;65.60;;;;;;7927573;28;20183;-49
2022/03/24 18:49:45;;;;;;;30.13;7.85;;;19.10;65.50;;;;;;7931848;28;20222;-52
2022/03/24 18:53:32;;;;;;;23.55;8.27;;;19.20;65.30;;;;;;7932032;28;20191;-52
2022/03/24 18:57:18;;;;;;;27.35;10.73;;;19.30;65.20;;;;;;7917970;28;20184;-51
2022/03/24 19:01:05;;;;;;;32.17;9.73;;;19.40;64.70;;;;;;7914342;28;20192;-53
2022/03/24 19:04:51;;;;;;;28.08;9.35;;;19.50;64.20;;;;;;7917769;28;20195;-48
2022/03/24 19:08:37;;;;;;;22.35;9.85;;;19.60;63.90;;;;;;7926418;28;20229;-54
2022/03/24 19:12:22;;;;;;;20.48;9.48;;;19.70;63.50;;;;;;7927871;28;20190;-52
2022/03/24 19:16:08;;;;;;;18.13;9.85;;;19.80;63.20;;;;;;7924021;28;20263;-50
2022/03/24 19:19:54;;;;;;;20.30;9.80;;;20.00;63.20;;;;;;7924458;28;20548;-49
2022/03/24 19:23:45;;;;;;;17.85;9.27;;;20.00;62.80;;;;;;7926734;28;20200;-51